createdAt,value
2023-03-30T00:00:19.776Z,10.10
2023-03-30T00:02:49.087Z,10.20
2023-03-30T00:05:17.424Z,10.20
2023-03-30T00:07:47.358Z,10.20
2023-03-30T00:10:17.730Z,10.20
2023-03-30T00:12:47.110Z,10.10
2023-03-30T00:15:16.515Z,10.10
2023-03-30T00:17:43.556Z,10.10
2023-03-30T00:20:14.235Z,10.10
2023-03-30T00:22:42.060Z,9.90
2023-03-30T00:25:12.332Z,9.90
2023-03-30T00:27:39.879Z,9.80
2023-03-30T00:30:11.080Z,9.60
2023-03-30T00:32:37.982Z,9.70
2023-03-30T00:35:05.756Z,9.60
2023-03-30T00:37:33.149Z,9.40
2023-03-30T00:39:59.926Z,9.40
2023-03-30T00:42:26.593Z,9.40
2023-03-30T00:45:09.026Z,9.40
2023-03-30T00:47:43.110Z,9.30
2023-03-30T00:50:12.184Z,9.10
2023-03-30T00:52:39.495Z,9.10
2023-03-30T00:55:07.902Z,9.00
2023-03-30T00:57:37.342Z,8.80
2023-03-30T01:00:08.345Z,8.80
2023-03-30T01:02:39.742Z,8.90
2023-03-30T01:05:08.635Z,8.90
2023-03-30T01:07:37.630Z,8.90
2023-03-30T01:10:04.871Z,8.80
2023-03-30T01:12:31.657Z,8.70
2023-03-30T01:14:58.379Z,8.70
2023-03-30T01:17:43.328Z,8.70
2023-03-30T01:20:25.448Z,8.70
2023-03-30T01:23:33.123Z,8.70
2023-03-30T01:26:33.510Z,8.70
2023-03-30T01:29:11.230Z,8.70
2023-03-30T01:32:07.409Z,8.70
2023-03-30T01:34:37.216Z,8.80
2023-03-30T01:37:53.217Z,8.80
2023-03-30T01:40:23.325Z,8.70
2023-03-30T01:43:04.953Z,8.70
2023-03-30T01:45:40.174Z,8.70
2023-03-30T01:48:19.491Z,8.70
2023-03-30T01:50:53.896Z,8.70
2023-03-30T01:53:38.815Z,8.70
2023-03-30T01:56:16.693Z,8.70
2023-03-30T01:59:06.648Z,8.80
2023-03-30T02:01:37.856Z,8.80
2023-03-30T02:04:08.278Z,8.90
2023-03-30T02:06:43.933Z,8.90
2023-03-30T02:09:15.897Z,9.00
2023-03-30T02:11:46.044Z,9.10
2023-03-30T02:14:15.945Z,9.10
2023-03-30T02:16:48.316Z,9.30
2023-03-30T02:19:16.884Z,9.50
2023-03-30T02:21:44.304Z,9.80
2023-03-30T02:24:19.160Z,10.10
2023-03-30T02:26:50.395Z,10.20
2023-03-30T02:29:18.217Z,10.40
2023-03-30T02:31:47.949Z,10.60
2023-03-30T02:34:29.052Z,10.80
2023-03-30T02:37:32.471Z,10.90
2023-03-30T02:40:26.428Z,10.90
2023-03-30T02:43:19.647Z,11.00
2023-03-30T02:46:04.699Z,11.00
2023-03-30T02:48:41.560Z,11.10
2023-03-30T02:51:08.661Z,11.20
2023-03-30T02:54:17.730Z,11.30
2023-03-30T02:57:11.647Z,11.40
2023-03-30T02:59:44.452Z,11.50
2023-03-30T03:02:19.949Z,11.60
2023-03-30T03:04:52.957Z,11.80
2023-03-30T03:07:32.121Z,12.00
2023-03-30T03:09:59.833Z,12.20
2023-03-30T03:12:28.679Z,12.40
2023-03-30T03:14:55.315Z,12.40
2023-03-30T03:17:22.418Z,12.60
2023-03-30T03:19:49.855Z,12.60
2023-03-30T03:22:18.756Z,12.50
2023-03-30T03:24:45.800Z,12.40
2023-03-30T03:27:42.088Z,12.40
2023-03-30T03:30:17.080Z,12.40
2023-03-30T03:32:50.636Z,12.40
2023-03-30T03:35:18.024Z,12.40
2023-03-30T03:37:45.076Z,12.40
2023-03-30T03:40:11.896Z,12.40
2023-03-30T03:42:39.424Z,12.40
2023-03-30T03:45:11.765Z,12.40
2023-03-30T03:47:51.626Z,12.50
2023-03-30T03:50:23.401Z,12.50
2023-03-30T03:52:50.767Z,12.50
2023-03-30T03:55:17.657Z,12.50
2023-03-30T03:57:45.015Z,12.50
2023-03-30T04:00:18.150Z,12.50
2023-03-30T04:02:49.953Z,12.60
2023-03-30T04:05:16.632Z,12.60
2023-03-30T04:07:46.175Z,12.70
2023-03-30T04:10:14.330Z,12.80
2023-03-30T04:12:46.026Z,12.80
2023-03-30T04:15:27.622Z,12.80
2023-03-30T04:18:33.202Z,12.80
2023-03-30T04:21:12.859Z,12.70
2023-03-30T04:24:05.759Z,12.80
2023-03-30T04:27:09.499Z,12.80
2023-03-30T04:29:44.613Z,12.90
2023-03-30T04:32:41.148Z,13.00
2023-03-30T04:35:25.261Z,13.00
2023-03-30T04:38:10.567Z,13.00
2023-03-30T04:40:56.212Z,12.90
2023-03-30T04:43:44.563Z,12.90
2023-03-30T04:46:28.073Z,12.90
2023-03-30T04:49:05.787Z,12.90
2023-03-30T04:52:10.851Z,13.00
2023-03-30T04:54:55.759Z,13.10
2023-03-30T04:57:54.396Z,13.10
2023-03-30T05:00:39.770Z,13.20
2023-03-30T05:03:29.882Z,13.10
2023-03-30T05:06:06.145Z,13.00
2023-03-30T05:08:45.483Z,12.80
2023-03-30T05:11:21.932Z,12.60
2023-03-30T05:13:57.483Z,12.70
2023-03-30T05:16:42.880Z,13.00
2023-03-30T05:19:29.925Z,13.50
2023-03-30T05:22:11.552Z,13.70
2023-03-30T05:24:56.584Z,13.70
2023-03-30T05:27:43.445Z,13.80
2023-03-30T05:30:40.725Z,13.80
2023-03-30T05:33:25.752Z,13.80
2023-03-30T05:36:13.535Z,13.70
2023-03-30T05:39:09.434Z,13.80
2023-03-30T05:41:41.796Z,13.70
2023-03-30T05:44:19.988Z,13.80
2023-03-30T05:47:16.846Z,13.80
2023-03-30T05:50:03.943Z,13.80
2023-03-30T05:52:47.969Z,13.80
2023-03-30T05:55:33.350Z,13.80
2023-03-30T05:58:28.941Z,13.80
2023-03-30T06:01:15.883Z,13.80
2023-03-30T06:03:45.013Z,13.80
2023-03-30T06:06:12.144Z,13.80
2023-03-30T06:08:41.739Z,13.70
2023-03-30T06:11:11.766Z,13.70
2023-03-30T06:13:55.247Z,13.50
2023-03-30T06:16:21.940Z,13.40
2023-03-30T06:18:48.569Z,13.20
2023-03-30T06:21:15.562Z,13.10
2023-03-30T06:23:53.220Z,13.00
2023-03-30T06:26:23.483Z,13.00
2023-03-30T06:28:50.395Z,13.00
2023-03-30T06:31:17.507Z,12.90
2023-03-30T06:33:47.575Z,12.90
2023-03-30T06:36:14.502Z,12.80
2023-03-30T06:38:46.364Z,12.80
2023-03-30T06:41:15.781Z,12.70
2023-03-30T06:43:44.328Z,12.70
2023-03-30T06:46:15.646Z,12.70
2023-03-30T06:48:48.284Z,12.70
2023-03-30T06:51:36.577Z,12.70
2023-03-30T06:54:04.884Z,12.80
2023-03-30T06:56:31.737Z,12.80
2023-03-30T06:59:05.578Z,12.90
2023-03-30T07:01:37.587Z,13.00
2023-03-30T07:04:25.328Z,12.90
2023-03-30T07:07:08.397Z,13.00
2023-03-30T07:09:35.177Z,13.10
2023-03-30T07:12:02.128Z,13.10
2023-03-30T07:14:29.330Z,13.10
2023-03-30T07:16:57.578Z,13.20
2023-03-30T07:19:24.193Z,13.20
2023-03-30T07:21:51.096Z,13.30
2023-03-30T07:24:20.336Z,13.40
2023-03-30T07:26:47.018Z,13.60
2023-03-30T07:29:15.300Z,13.80
2023-03-30T07:31:44.907Z,13.80
2023-03-30T07:34:13.458Z,13.90
2023-03-30T07:36:47.468Z,13.90
2023-03-30T07:39:14.264Z,13.90
2023-03-30T07:41:43.555Z,13.90
2023-03-30T07:44:10.300Z,13.90
2023-03-30T07:46:37.152Z,14.00
2023-03-30T07:49:04.005Z,13.90
2023-03-30T07:51:31.698Z,13.90
2023-03-30T07:54:13.974Z,13.90
2023-03-30T07:56:54.944Z,13.90
2023-03-30T07:59:23.683Z,13.90
2023-03-30T08:01:54.342Z,14.00
2023-03-30T08:04:41.453Z,14.00
2023-03-30T08:07:09.630Z,14.00
2023-03-30T08:09:37.461Z,14.20
2023-03-30T08:12:04.712Z,14.40
2023-03-30T08:14:31.317Z,14.70
2023-03-30T08:16:57.949Z,15.00
2023-03-30T08:19:25.460Z,15.20
2023-03-30T08:21:52.032Z,15.40
2023-03-30T08:24:18.714Z,15.50
2023-03-30T08:26:45.516Z,15.60
2023-03-30T08:29:12.747Z,15.60
2023-03-30T08:31:39.488Z,15.50
2023-03-30T08:34:07.856Z,15.30
2023-03-30T08:36:34.799Z,15.30
2023-03-30T08:39:02.568Z,15.20
2023-03-30T08:41:29.175Z,15.20
2023-03-30T08:44:00.698Z,15.20
2023-03-30T08:46:29.965Z,15.20
2023-03-30T08:49:00.924Z,15.30
2023-03-30T08:51:33.164Z,15.30
2023-03-30T08:54:09.305Z,15.10
2023-03-30T08:56:41.532Z,15.10
2023-03-30T08:59:20.996Z,15.00
2023-03-30T09:01:47.791Z,14.90
2023-03-30T09:04:29.448Z,15.00
2023-03-30T09:07:12.111Z,15.10
2023-03-30T09:09:47.277Z,15.20
2023-03-30T09:12:43.098Z,15.20
2023-03-30T09:15:31.719Z,15.10
2023-03-30T09:18:17.495Z,15.00
2023-03-30T09:20:46.087Z,15.10
2023-03-30T09:23:15.558Z,14.90
2023-03-30T09:26:01.319Z,14.80
2023-03-30T09:28:40.658Z,14.80
2023-03-30T09:31:11.791Z,14.80
2023-03-30T09:33:46.835Z,14.80
2023-03-30T09:36:15.034Z,14.50
2023-03-30T09:38:43.055Z,14.40
2023-03-30T09:41:43.869Z,14.30
2023-03-30T09:44:22.680Z,14.20
2023-03-30T09:46:52.321Z,14.10
2023-03-30T09:49:18.880Z,14.10
2023-03-30T09:52:07.603Z,14.10
2023-03-30T09:54:40.704Z,14.10
2023-03-30T09:57:31.468Z,14.10
2023-03-30T10:00:01.219Z,14.20
2023-03-30T10:02:31.228Z,14.30
2023-03-30T10:05:02.502Z,14.20
2023-03-30T10:07:33.160Z,14.00
2023-03-30T10:10:03.143Z,14.00
2023-03-30T10:12:30.690Z,13.80
2023-03-30T10:15:12.577Z,13.60
2023-03-30T10:17:41.466Z,13.10
2023-03-30T10:20:38.768Z,12.30
2023-03-30T10:23:15.691Z,11.70
2023-03-30T10:25:43.507Z,11.40
2023-03-30T10:28:26.947Z,11.30
2023-03-30T10:31:16.892Z,11.10
2023-03-30T10:33:44.651Z,11.00
2023-03-30T10:36:14.194Z,11.00
2023-03-30T10:38:43.187Z,11.00
2023-03-30T10:41:22.299Z,11.00
2023-03-30T10:43:52.804Z,11.10
2023-03-30T10:46:22.864Z,11.30
2023-03-30T10:49:19.938Z,11.50
2023-03-30T10:52:05.541Z,11.60
2023-03-30T10:54:42.617Z,11.70
2023-03-30T10:57:21.775Z,11.80
2023-03-30T11:00:12.930Z,12.00
2023-03-30T11:02:46.055Z,12.40
2023-03-30T11:05:19.706Z,12.80
2023-03-30T11:07:48.494Z,13.40
2023-03-30T11:10:22.010Z,13.70
2023-03-30T11:13:14.637Z,13.90
2023-03-30T11:15:45.272Z,14.10
2023-03-30T11:18:28.621Z,14.10
2023-03-30T11:21:04.125Z,14.00
2023-03-30T11:23:43.096Z,14.00
2023-03-30T11:26:20.114Z,13.90
2023-03-30T11:29:08.111Z,13.70
2023-03-30T11:31:49.849Z,13.50
2023-03-30T11:35:09.279Z,13.30
2023-03-30T11:37:48.117Z,12.90
2023-03-30T11:40:21.387Z,12.30
2023-03-30T11:42:49.198Z,12.10
2023-03-30T11:45:31.791Z,12.20
2023-03-30T11:48:35.846Z,12.20
2023-03-30T11:51:12.062Z,12.20
2023-03-30T11:54:06.083Z,12.30
2023-03-30T11:57:20.218Z,12.40
2023-03-30T12:00:08.175Z,12.60
2023-03-30T12:02:50.825Z,12.60
2023-03-30T12:05:27.794Z,12.80
2023-03-30T12:08:12.748Z,12.80
2023-03-30T12:10:41.624Z,12.80
2023-03-30T12:13:17.295Z,12.80
2023-03-30T12:16:09.247Z,12.90
2023-03-30T12:19:06.760Z,13.40
2023-03-30T12:21:49.935Z,13.90
2023-03-30T12:24:50.717Z,14.10
2023-03-30T12:27:17.681Z,14.10
2023-03-30T12:32:28.251Z,14.20
2023-03-30T12:34:57.016Z,13.90
2023-03-30T12:37:28.424Z,13.80
2023-03-30T12:40:12.268Z,13.90
2023-03-30T12:42:46.748Z,14.20
2023-03-30T12:45:32.713Z,14.10
2023-03-30T12:48:28.937Z,14.10
2023-03-30T12:51:16.042Z,14.00
2023-03-30T12:54:08.209Z,14.00
2023-03-30T12:56:56.028Z,14.10
2023-03-30T12:59:53.575Z,14.30
2023-03-30T13:02:38.600Z,14.20
2023-03-30T13:05:31.997Z,14.10
2023-03-30T13:08:04.419Z,14.00
2023-03-30T13:10:31.570Z,13.90
2023-03-30T13:13:01.418Z,14.00
2023-03-30T13:15:49.053Z,13.80
2023-03-30T13:18:18.429Z,13.70
2023-03-30T13:20:48.148Z,13.60
2023-03-30T13:23:14.712Z,13.70
2023-03-30T13:25:49.009Z,13.80
2023-03-30T13:28:34.492Z,13.80
2023-03-30T13:31:32.096Z,13.90
2023-03-30T13:34:31.344Z,14.00
2023-03-30T13:37:23.888Z,14.00
2023-03-30T13:40:00.144Z,13.90
2023-03-30T13:42:45.768Z,13.70
2023-03-30T13:45:24.810Z,13.40
2023-03-30T13:48:03.703Z,13.30
2023-03-30T13:50:34.125Z,13.20
2023-03-30T13:53:08.309Z,13.00
2023-03-30T13:55:45.476Z,12.00
2023-03-30T13:58:20.563Z,11.10
2023-03-30T14:00:55.663Z,10.70
2023-03-30T14:03:28.795Z,10.60
2023-03-30T14:06:02.613Z,11.10
2023-03-30T14:08:34.141Z,11.50
2023-03-30T14:11:04.647Z,11.50
2023-03-30T14:13:33.446Z,11.40
2023-03-30T14:16:00.297Z,11.40
2023-03-30T14:18:27.644Z,11.40
2023-03-30T14:20:57.737Z,11.50
2023-03-30T14:23:40.437Z,11.60
2023-03-30T14:26:28.922Z,11.70
2023-03-30T14:28:58.783Z,11.40
2023-03-30T14:31:28.737Z,10.90
2023-03-30T14:33:55.703Z,10.50
2023-03-30T14:36:22.876Z,10.30
2023-03-30T14:38:52.702Z,10.20
2023-03-30T14:41:27.811Z,10.30
2023-03-30T14:44:00.453Z,10.40
2023-03-30T14:46:48.190Z,10.50
2023-03-30T14:49:18.315Z,10.60
2023-03-30T14:51:48.099Z,10.60
2023-03-30T14:54:21.507Z,10.60
2023-03-30T14:56:57.745Z,10.60
2023-03-30T14:59:26.528Z,10.60
2023-03-30T15:01:54.997Z,10.80
2023-03-30T15:04:25.936Z,11.20
2023-03-30T15:06:53.638Z,11.50
2023-03-30T15:09:24.680Z,11.80
2023-03-30T15:12:01.777Z,11.90
2023-03-30T15:14:35.543Z,12.00
2023-03-30T15:17:08.516Z,12.10
2023-03-30T15:19:37.513Z,12.00
2023-03-30T15:22:31.376Z,12.00
2023-03-30T15:25:02.297Z,11.90
2023-03-30T15:27:30.282Z,11.90
2023-03-30T15:29:59.849Z,11.90
2023-03-30T15:32:35.978Z,11.90
2023-03-30T15:35:23.124Z,12.00
2023-03-30T15:38:12.440Z,12.10
2023-03-30T15:40:41.903Z,12.10
2023-03-30T15:43:28.304Z,12.10
2023-03-30T15:45:59.547Z,12.00
2023-03-30T15:48:34.506Z,12.00
2023-03-30T15:51:07.593Z,12.00
2023-03-30T15:53:40.771Z,12.00
2023-03-30T15:56:18.755Z,11.90
2023-03-30T15:58:45.431Z,11.90
2023-03-30T16:01:16.078Z,11.90
2023-03-30T16:04:14.660Z,11.90
2023-03-30T16:06:43.172Z,11.90
2023-03-30T16:09:10.916Z,11.80
2023-03-30T16:11:38.036Z,11.80
2023-03-30T16:14:07.138Z,11.80
2023-03-30T16:16:34.525Z,11.90
2023-03-30T16:19:01.480Z,11.90
2023-03-30T16:21:28.172Z,12.00
2023-03-30T16:23:54.811Z,12.00
2023-03-30T16:26:21.474Z,11.90
2023-03-30T16:28:51.400Z,11.80
2023-03-30T16:31:21.461Z,11.80
2023-03-30T16:33:48.353Z,11.70
2023-03-30T16:36:20.842Z,11.70
2023-03-30T16:38:48.248Z,11.60
2023-03-30T16:41:21.356Z,11.50
2023-03-30T16:43:48.608Z,11.50
2023-03-30T16:46:17.320Z,11.40
2023-03-30T16:48:44.277Z,11.40
2023-03-30T16:51:12.859Z,11.50
2023-03-30T16:53:40.655Z,11.40
2023-03-30T16:56:14.831Z,11.30
2023-03-30T16:58:41.490Z,11.20
2023-03-30T17:01:13.033Z,11.20
2023-03-30T17:03:40.313Z,11.10
2023-03-30T17:06:07.369Z,11.10
2023-03-30T17:08:34.762Z,11.10
2023-03-30T17:11:07.485Z,11.00
2023-03-30T17:13:34.790Z,11.00
2023-03-30T17:16:02.700Z,10.90
2023-03-30T17:18:30.530Z,11.00
2023-03-30T17:20:59.507Z,10.90
2023-03-30T17:23:29.063Z,10.90
2023-03-30T17:25:57.593Z,10.80
2023-03-30T17:28:27.982Z,10.80
2023-03-30T17:31:00.411Z,10.80
2023-03-30T17:33:27.297Z,10.70
2023-03-30T17:35:58.002Z,10.70
2023-03-30T17:38:24.748Z,10.70
2023-03-30T17:40:51.528Z,10.70
2023-03-30T17:43:18.274Z,10.60
2023-03-30T17:45:46.294Z,10.60
2023-03-30T17:48:16.460Z,10.50
2023-03-30T17:50:45.976Z,10.50
2023-03-30T17:53:14.589Z,10.50
2023-03-30T17:55:41.476Z,10.40
2023-03-30T17:58:31.744Z,10.30
2023-03-30T18:01:00.963Z,10.20
2023-03-30T18:03:31.269Z,10.10
2023-03-30T18:06:00.259Z,10.10
2023-03-30T18:08:27.927Z,10.10
2023-03-30T18:10:56.668Z,10.10
2023-03-30T18:13:24.639Z,10.10
2023-03-30T18:15:54.668Z,10.10
2023-03-30T18:18:24.853Z,10.00
2023-03-30T18:20:54.686Z,10.00
2023-03-30T18:23:21.666Z,10.00
2023-03-30T18:25:48.748Z,10.10
2023-03-30T18:28:24.300Z,10.10
2023-03-30T18:30:53.374Z,10.10
2023-03-30T18:33:20.264Z,10.10
2023-03-30T18:35:48.951Z,10.10
2023-03-30T18:38:18.039Z,10.10
2023-03-30T18:40:49.145Z,10.10
2023-03-30T18:43:16.476Z,10.10
2023-03-30T18:45:46.296Z,10.20
2023-03-30T18:48:15.962Z,10.20
2023-03-30T18:50:50.772Z,10.20
2023-03-30T18:53:20.298Z,10.30
2023-03-30T18:55:49.197Z,10.40
2023-03-30T18:58:22.908Z,10.30
2023-03-30T19:00:51.516Z,10.40
2023-03-30T19:03:19.724Z,10.50
2023-03-30T19:05:47.335Z,10.50
2023-03-30T19:08:16.255Z,10.40
2023-03-30T19:10:44.574Z,10.30
2023-03-30T19:13:16.632Z,10.30
2023-03-30T19:15:44.266Z,10.30
2023-03-30T19:18:11.534Z,10.30
2023-03-30T19:20:40.938Z,10.30
2023-03-30T19:23:11.206Z,10.30
2023-03-30T19:25:38.376Z,10.30
2023-03-30T19:28:06.270Z,10.20
2023-03-30T19:30:35.996Z,10.30
2023-03-30T19:33:06.512Z,10.30
2023-03-30T19:35:33.563Z,10.30
2023-03-30T19:38:00.464Z,10.30
2023-03-30T19:40:27.575Z,10.30
2023-03-30T19:42:54.210Z,10.30
2023-03-30T19:45:21.519Z,10.30
2023-03-30T19:47:48.235Z,10.30
2023-03-30T19:50:20.135Z,10.30
2023-03-30T19:52:49.718Z,10.30
2023-03-30T19:55:17.704Z,10.40
2023-03-30T19:57:45.386Z,10.40
2023-03-30T20:00:15.620Z,10.40
2023-03-30T20:02:44.816Z,10.40
2023-03-30T20:05:15.426Z,10.40
2023-03-30T20:07:43.221Z,10.30
2023-03-30T20:10:12.279Z,10.30
2023-03-30T20:12:39.418Z,10.30
2023-03-30T20:15:09.339Z,10.30
2023-03-30T20:17:36.694Z,10.30
2023-03-30T20:20:09.082Z,10.30
2023-03-30T20:22:37.844Z,10.30
2023-03-30T20:25:07.361Z,10.40
2023-03-30T20:27:35.267Z,10.40
2023-03-30T20:30:02.563Z,10.40
2023-03-30T20:32:29.470Z,10.50
2023-03-30T20:34:56.158Z,10.50
2023-03-30T20:37:22.851Z,10.50
2023-03-30T20:39:50.365Z,10.50
2023-03-30T20:42:17.845Z,10.50
2023-03-30T20:44:49.924Z,10.50
2023-03-30T20:47:17.629Z,10.50
2023-03-30T20:49:46.179Z,10.60
2023-03-30T20:52:12.965Z,10.50
2023-03-30T20:54:41.067Z,10.50
2023-03-30T20:57:07.892Z,10.60
2023-03-30T20:59:34.587Z,10.60
2023-03-30T21:02:03.411Z,10.60
2023-03-30T21:04:30.217Z,10.60
2023-03-30T21:06:57.163Z,10.60
2023-03-30T21:09:24.065Z,10.60
2023-03-30T21:11:50.781Z,10.60
2023-03-30T21:14:17.513Z,10.60
2023-03-30T21:16:44.616Z,10.60
2023-03-30T21:19:11.735Z,10.70
2023-03-30T21:21:38.679Z,10.70
2023-03-30T21:24:06.915Z,10.70
2023-03-30T21:26:33.582Z,10.70
2023-03-30T21:29:00.366Z,10.70
2023-03-30T21:31:27.056Z,10.70
2023-03-30T21:33:53.738Z,10.70
2023-03-30T21:36:20.686Z,10.70
2023-03-30T21:38:47.395Z,10.60
2023-03-30T21:41:19.302Z,10.60
2023-03-30T21:43:47.447Z,10.60
2023-03-30T21:46:22.653Z,10.60
2023-03-30T21:48:53.059Z,10.60
2023-03-30T21:51:28.583Z,10.60
2023-03-30T21:53:56.411Z,10.60
2023-03-30T21:56:27.392Z,10.60
2023-03-30T21:58:54.067Z,10.60
2023-03-30T22:01:25.578Z,10.60
2023-03-30T22:03:53.601Z,10.60
2023-03-30T22:06:21.247Z,10.60
2023-03-30T22:08:47.888Z,10.70
2023-03-30T22:11:17.331Z,10.70
2023-03-30T22:13:46.148Z,10.70
2023-03-30T22:16:17.490Z,10.70
2023-03-30T22:18:45.391Z,10.70
2023-03-30T22:21:15.252Z,10.70
2023-03-30T22:23:41.922Z,10.70
2023-03-30T22:26:08.772Z,10.60
2023-03-30T22:28:35.713Z,10.60
2023-03-30T22:31:02.472Z,10.60
2023-03-30T22:33:29.158Z,10.60
2023-03-30T22:35:56.949Z,10.60
2023-03-30T22:38:23.686Z,10.60
2023-03-30T22:40:50.363Z,10.60
2023-03-30T22:43:17.294Z,10.60
2023-03-30T22:45:44.064Z,10.50
2023-03-30T22:48:11.114Z,10.50
2023-03-30T22:50:37.767Z,10.50
2023-03-30T22:53:04.438Z,10.50
2023-03-30T22:55:31.131Z,10.40
2023-03-30T22:57:57.825Z,10.30
2023-03-30T23:00:25.322Z,10.30
2023-03-30T23:02:53.349Z,10.20
2023-03-30T23:05:23.010Z,10.20
2023-03-30T23:07:50.421Z,10.10
2023-03-30T23:10:19.344Z,10.00
2023-03-30T23:12:46.619Z,10.00
2023-03-30T23:15:13.653Z,10.10
2023-03-30T23:17:40.849Z,10.00
2023-03-30T23:20:10.096Z,9.90
2023-03-30T23:22:37.940Z,10.00
2023-03-30T23:25:06.323Z,9.90
2023-03-30T23:27:33.750Z,9.90
2023-03-30T23:30:00.452Z,9.80
2023-03-30T23:32:27.363Z,9.80
2023-03-30T23:34:54.082Z,9.80
2023-03-30T23:37:21.839Z,9.80
2023-03-30T23:39:48.965Z,9.80
2023-03-30T23:42:16.209Z,9.80
2023-03-30T23:44:42.851Z,9.70
2023-03-30T23:47:09.514Z,9.70
2023-03-30T23:49:36.193Z,9.70
2023-03-30T23:52:02.868Z,9.70
2023-03-30T23:54:31.345Z,9.60
2023-03-30T23:56:58.263Z,9.70
2023-03-30T23:59:25.185Z,9.70
